sensor_id;sensor_type;location;lat;lon;timestamp;temperature;humidity
18103;DHT22;9178;51.120;6.192;2023-04-03T00:00:52;1.20;99.90
18103;DHT22;9178;51.120;6.192;2023-04-03T00:03:19;1.20;99.90
18103;DHT22;9178;51.120;6.192;2023-04-03T00:05:46;1.20;99.90
18103;DHT22;9178;51.120;6.192;2023-04-03T00:08:14;1.20;99.90
18103;DHT22;9178;51.120;6.192;2023-04-03T00:10:41;1.10;99.90
18103;DHT22;9178;51.120;6.192;2023-04-03T00:13:09;1.10;99.90
18103;DHT22;9178;51.120;6.192;2023-04-03T00:15:37;1.10;99.90
18103;DHT22;9178;51.120;6.192;2023-04-03T00:18:05;1.10;99.90
18103;DHT22;9178;51.120;6.192;2023-04-03T00:20:35;1.10;99.90
18103;DHT22;9178;51.120;6.192;2023-04-03T00:23:02;1.10;99.90
18103;DHT22;9178;51.120;6.192;2023-04-03T00:25:29;1.00;99.90
18103;DHT22;9178;51.120;6.192;2023-04-03T00:27:56;1.00;99.90
18103;DHT22;9178;51.120;6.192;2023-04-03T00:30:23;1.00;99.90
18103;DHT22;9178;51.120;6.192;2023-04-03T00:32:52;1.00;99.90
18103;DHT22;9178;51.120;6.192;2023-04-03T00:35:20;0.90;99.90
18103;DHT22;9178;51.120;6.192;2023-04-03T00:37:48;0.90;99.90
18103;DHT22;9178;51.120;6.192;2023-04-03T00:40:15;0.90;99.90
18103;DHT22;9178;51.120;6.192;2023-04-03T00:42:43;0.80;99.90
18103;DHT22;9178;51.120;6.192;2023-04-03T00:45:34;0.90;99.90
18103;DHT22;9178;51.120;6.192;2023-04-03T00:48:05;0.80;99.90
18103;DHT22;9178;51.120;6.192;2023-04-03T00:50:35;0.80;99.90
18103;DHT22;9178;51.120;6.192;2023-04-03T00:53:04;0.80;99.90
18103;DHT22;9178;51.120;6.192;2023-04-03T00:55:31;0.70;99.90
18103;DHT22;9178;51.120;6.192;2023-04-03T00:57:59;0.70;99.90
18103;DHT22;9178;51.120;6.192;2023-04-03T01:00:26;0.70;99.90
18103;DHT22;9178;51.120;6.192;2023-04-03T01:02:53;0.70;99.90
18103;DHT22;9178;51.120;6.192;2023-04-03T01:05:22;0.70;99.90
18103;DHT22;9178;51.120;6.192;2023-04-03T01:07:50;0.60;99.90
18103;DHT22;9178;51.120;6.192;2023-04-03T01:10:18;0.60;99.90
18103;DHT22;9178;51.120;6.192;2023-04-03T01:12:48;0.60;99.90
18103;DHT22;9178;51.120;6.192;2023-04-03T01:15:18;0.50;99.90
18103;DHT22;9178;51.120;6.192;2023-04-03T01:17:47;0.50;99.90
18103;DHT22;9178;51.120;6.192;2023-04-03T01:26:34;0.50;99.90
18103;DHT22;9178;51.120;6.192;2023-04-03T01:29:01;0.40;99.90
18103;DHT22;9178;51.120;6.192;2023-04-03T01:31:39;0.50;99.90
18103;DHT22;9178;51.120;6.192;2023-04-03T01:34:06;0.50;99.90
18103;DHT22;9178;51.120;6.192;2023-04-03T01:36:33;0.40;99.90
18103;DHT22;9178;51.120;6.192;2023-04-03T01:39:00;0.50;99.90
18103;DHT22;9178;51.120;6.192;2023-04-03T01:41:27;0.40;99.90
18103;DHT22;9178;51.120;6.192;2023-04-03T01:43:54;0.40;99.90
18103;DHT22;9178;51.120;6.192;2023-04-03T01:46:21;0.40;99.90
18103;DHT22;9178;51.120;6.192;2023-04-03T01:48:50;0.40;99.90
18103;DHT22;9178;51.120;6.192;2023-04-03T01:51:17;0.40;99.90
18103;DHT22;9178;51.120;6.192;2023-04-03T01:53:46;0.40;99.90
18103;DHT22;9178;51.120;6.192;2023-04-03T01:56:13;0.40;99.90
18103;DHT22;9178;51.120;6.192;2023-04-03T01:58:43;0.30;99.90
18103;DHT22;9178;51.120;6.192;2023-04-03T02:01:10;0.30;99.90
18103;DHT22;9178;51.120;6.192;2023-04-03T02:03:37;0.30;99.90
18103;DHT22;9178;51.120;6.192;2023-04-03T02:06:06;0.30;99.90
18103;DHT22;9178;51.120;6.192;2023-04-03T02:08:33;0.30;99.90
18103;DHT22;9178;51.120;6.192;2023-04-03T02:11:00;0.30;99.90
18103;DHT22;9178;51.120;6.192;2023-04-03T02:13:26;0.30;99.90
18103;DHT22;9178;51.120;6.192;2023-04-03T02:15:53;0.20;99.90
18103;DHT22;9178;51.120;6.192;2023-04-03T02:18:20;0.20;99.90
18103;DHT22;9178;51.120;6.192;2023-04-03T02:20:50;0.20;99.90
18103;DHT22;9178;51.120;6.192;2023-04-03T02:23:18;0.20;99.90
18103;DHT22;9178;51.120;6.192;2023-04-03T02:25:47;0.20;99.90
18103;DHT22;9178;51.120;6.192;2023-04-03T02:28:15;0.20;99.90
18103;DHT22;9178;51.120;6.192;2023-04-03T02:30:42;0.20;99.90
18103;DHT22;9178;51.120;6.192;2023-04-03T02:33:09;0.20;99.90
18103;DHT22;9178;51.120;6.192;2023-04-03T02:35:36;0.20;99.90
18103;DHT22;9178;51.120;6.192;2023-04-03T02:38:03;0.20;99.90
18103;DHT22;9178;51.120;6.192;2023-04-03T02:40:36;0.10;99.90
18103;DHT22;9178;51.120;6.192;2023-04-03T02:43:03;0.20;99.90
18103;DHT22;9178;51.120;6.192;2023-04-03T02:45:30;0.20;99.90
18103;DHT22;9178;51.120;6.192;2023-04-03T02:47:56;0.20;99.90
18103;DHT22;9178;51.120;6.192;2023-04-03T02:50:23;0.20;99.90
18103;DHT22;9178;51.120;6.192;2023-04-03T02:53:14;0.20;99.90
18103;DHT22;9178;51.120;6.192;2023-04-03T02:55:41;0.20;99.90
18103;DHT22;9178;51.120;6.192;2023-04-03T02:58:08;0.20;99.90
18103;DHT22;9178;51.120;6.192;2023-04-03T03:00:35;0.20;99.90
18103;DHT22;9178;51.120;6.192;2023-04-03T03:03:02;0.20;99.90
18103;DHT22;9178;51.120;6.192;2023-04-03T03:05:29;0.20;99.90
18103;DHT22;9178;51.120;6.192;2023-04-03T03:07:56;0.20;99.90
18103;DHT22;9178;51.120;6.192;2023-04-03T03:10:24;0.20;99.90
18103;DHT22;9178;51.120;6.192;2023-04-03T03:12:51;0.10;99.90
18103;DHT22;9178;51.120;6.192;2023-04-03T03:15:18;0.10;99.90
18103;DHT22;9178;51.120;6.192;2023-04-03T03:17:45;0.10;99.90
18103;DHT22;9178;51.120;6.192;2023-04-03T03:20:13;0.10;99.90
18103;DHT22;9178;51.120;6.192;2023-04-03T03:22:41;0.00;99.90
18103;DHT22;9178;51.120;6.192;2023-04-03T03:25:08;0.10;99.90
18103;DHT22;9178;51.120;6.192;2023-04-03T03:27:36;0.10;99.90
18103;DHT22;9178;51.120;6.192;2023-04-03T03:30:04;0.10;99.90
18103;DHT22;9178;51.120;6.192;2023-04-03T03:32:31;0.10;99.90
18103;DHT22;9178;51.120;6.192;2023-04-03T03:34:58;0.10;99.90
18103;DHT22;9178;51.120;6.192;2023-04-03T03:37:25;0.10;99.90
18103;DHT22;9178;51.120;6.192;2023-04-03T03:39:52;0.10;99.90
18103;DHT22;9178;51.120;6.192;2023-04-03T03:42:19;0.10;99.90
18103;DHT22;9178;51.120;6.192;2023-04-03T03:44:47;0.10;99.90
18103;DHT22;9178;51.120;6.192;2023-04-03T03:47:14;0.10;99.90
18103;DHT22;9178;51.120;6.192;2023-04-03T03:49:43;0.10;99.90
18103;DHT22;9178;51.120;6.192;2023-04-03T03:52:10;0.10;99.90
18103;DHT22;9178;51.120;6.192;2023-04-03T03:54:37;0.20;99.90
18103;DHT22;9178;51.120;6.192;2023-04-03T03:57:04;0.20;99.90
18103;DHT22;9178;51.120;6.192;2023-04-03T03:59:31;0.20;99.90
18103;DHT22;9178;51.120;6.192;2023-04-03T04:01:59;0.20;99.90
18103;DHT22;9178;51.120;6.192;2023-04-03T04:04:26;0.10;99.90
18103;DHT22;9178;51.120;6.192;2023-04-03T04:06:53;0.10;99.90
18103;DHT22;9178;51.120;6.192;2023-04-03T04:09:20;0.20;99.90
18103;DHT22;9178;51.120;6.192;2023-04-03T04:11:47;0.10;99.90
18103;DHT22;9178;51.120;6.192;2023-04-03T04:14:13;0.20;99.90
18103;DHT22;9178;51.120;6.192;2023-04-03T04:16:40;0.20;99.90
18103;DHT22;9178;51.120;6.192;2023-04-03T04:19:09;0.10;99.90
18103;DHT22;9178;51.120;6.192;2023-04-03T04:21:36;0.10;99.90
18103;DHT22;9178;51.120;6.192;2023-04-03T04:24:03;0.10;99.90
18103;DHT22;9178;51.120;6.192;2023-04-03T04:26:30;0.10;99.90
18103;DHT22;9178;51.120;6.192;2023-04-03T04:28:57;0.10;99.90
18103;DHT22;9178;51.120;6.192;2023-04-03T04:31:23;0.10;99.90
18103;DHT22;9178;51.120;6.192;2023-04-03T04:33:50;0.10;99.90
18103;DHT22;9178;51.120;6.192;2023-04-03T04:36:19;0.10;99.90
18103;DHT22;9178;51.120;6.192;2023-04-03T04:38:46;0.10;99.90
18103;DHT22;9178;51.120;6.192;2023-04-03T04:41:12;0.10;99.90
18103;DHT22;9178;51.120;6.192;2023-04-03T04:43:39;0.10;99.90
18103;DHT22;9178;51.120;6.192;2023-04-03T04:46:08;0.10;99.90
18103;DHT22;9178;51.120;6.192;2023-04-03T04:48:37;0.10;99.90
18103;DHT22;9178;51.120;6.192;2023-04-03T04:51:04;0.10;99.90
18103;DHT22;9178;51.120;6.192;2023-04-03T04:53:33;0.10;99.90
18103;DHT22;9178;51.120;6.192;2023-04-03T04:56:00;0.10;99.90
18103;DHT22;9178;51.120;6.192;2023-04-03T04:58:27;0.10;99.90
18103;DHT22;9178;51.120;6.192;2023-04-03T05:00:58;0.10;99.90
18103;DHT22;9178;51.120;6.192;2023-04-03T05:03:26;0.10;99.90
18103;DHT22;9178;51.120;6.192;2023-04-03T05:05:52;0.10;99.90
18103;DHT22;9178;51.120;6.192;2023-04-03T05:08:19;0.10;99.90
18103;DHT22;9178;51.120;6.192;2023-04-03T05:10:48;0.10;99.90
18103;DHT22;9178;51.120;6.192;2023-04-03T05:13:15;0.20;99.90
18103;DHT22;9178;51.120;6.192;2023-04-03T05:15:42;0.10;99.90
18103;DHT22;9178;51.120;6.192;2023-04-03T05:18:09;0.20;99.90
18103;DHT22;9178;51.120;6.192;2023-04-03T05:20:36;0.20;99.90
18103;DHT22;9178;51.120;6.192;2023-04-03T05:23:03;0.20;99.90
18103;DHT22;9178;51.120;6.192;2023-04-03T05:25:30;0.20;99.90
18103;DHT22;9178;51.120;6.192;2023-04-03T05:27:58;0.20;99.90
18103;DHT22;9178;51.120;6.192;2023-04-03T05:30:25;0.20;99.90
18103;DHT22;9178;51.120;6.192;2023-04-03T05:32:52;0.20;99.90
18103;DHT22;9178;51.120;6.192;2023-04-03T05:35:19;0.20;99.90
18103;DHT22;9178;51.120;6.192;2023-04-03T05:37:46;0.20;99.90
18103;DHT22;9178;51.120;6.192;2023-04-03T05:40:13;0.30;99.90
18103;DHT22;9178;51.120;6.192;2023-04-03T05:42:39;0.30;99.90
18103;DHT22;9178;51.120;6.192;2023-04-03T05:45:08;0.30;99.90
18103;DHT22;9178;51.120;6.192;2023-04-03T05:47:35;0.40;99.90
18103;DHT22;9178;51.120;6.192;2023-04-03T05:50:03;0.50;99.90
18103;DHT22;9178;51.120;6.192;2023-04-03T05:52:32;0.60;99.90
18103;DHT22;9178;51.120;6.192;2023-04-03T05:55:00;0.70;99.90
18103;DHT22;9178;51.120;6.192;2023-04-03T05:57:27;0.80;99.90
18103;DHT22;9178;51.120;6.192;2023-04-03T05:59:54;0.80;99.90
18103;DHT22;9178;51.120;6.192;2023-04-03T06:02:24;1.00;99.90
18103;DHT22;9178;51.120;6.192;2023-04-03T06:04:51;1.10;99.90
18103;DHT22;9178;51.120;6.192;2023-04-03T06:07:19;1.20;99.90
18103;DHT22;9178;51.120;6.192;2023-04-03T06:09:49;1.30;99.90
18103;DHT22;9178;51.120;6.192;2023-04-03T06:12:16;1.40;99.90
18103;DHT22;9178;51.120;6.192;2023-04-03T06:14:43;1.40;99.90
18103;DHT22;9178;51.120;6.192;2023-04-03T06:17:11;1.50;99.90
18103;DHT22;9178;51.120;6.192;2023-04-03T06:19:40;1.60;99.90
18103;DHT22;9178;51.120;6.192;2023-04-03T06:22:07;1.70;99.90
18103;DHT22;9178;51.120;6.192;2023-04-03T06:24:34;1.80;99.90
18103;DHT22;9178;51.120;6.192;2023-04-03T06:27:01;2.00;99.90
18103;DHT22;9178;51.120;6.192;2023-04-03T06:29:28;2.30;99.90
18103;DHT22;9178;51.120;6.192;2023-04-03T06:31:55;2.50;99.90
18103;DHT22;9178;51.120;6.192;2023-04-03T06:34:22;2.70;99.90
18103;DHT22;9178;51.120;6.192;2023-04-03T06:36:50;2.80;99.90
18103;DHT22;9178;51.120;6.192;2023-04-03T06:39:18;2.90;99.90
18103;DHT22;9178;51.120;6.192;2023-04-03T06:41:46;3.00;99.90
18103;DHT22;9178;51.120;6.192;2023-04-03T06:44:13;2.90;99.90
18103;DHT22;9178;51.120;6.192;2023-04-03T06:46:42;2.90;99.90
18103;DHT22;9178;51.120;6.192;2023-04-03T06:49:09;3.10;99.90
18103;DHT22;9178;51.120;6.192;2023-04-03T06:51:36;3.10;99.90
18103;DHT22;9178;51.120;6.192;2023-04-03T06:54:07;3.20;99.90
18103;DHT22;9178;51.120;6.192;2023-04-03T06:56:34;3.30;99.90
18103;DHT22;9178;51.120;6.192;2023-04-03T06:59:01;3.60;99.90
18103;DHT22;9178;51.120;6.192;2023-04-03T07:01:29;3.80;99.90
18103;DHT22;9178;51.120;6.192;2023-04-03T07:03:57;4.10;99.90
18103;DHT22;9178;51.120;6.192;2023-04-03T07:06:24;4.20;99.90
18103;DHT22;9178;51.120;6.192;2023-04-03T07:08:53;4.30;99.90
18103;DHT22;9178;51.120;6.192;2023-04-03T07:11:21;4.70;99.90
18103;DHT22;9178;51.120;6.192;2023-04-03T07:13:48;4.80;99.90
18103;DHT22;9178;51.120;6.192;2023-04-03T07:16:15;4.60;99.90
18103;DHT22;9178;51.120;6.192;2023-04-03T07:18:42;4.70;99.90
18103;DHT22;9178;51.120;6.192;2023-04-03T07:21:08;4.80;99.90
18103;DHT22;9178;51.120;6.192;2023-04-03T07:23:36;4.80;99.90
18103;DHT22;9178;51.120;6.192;2023-04-03T07:26:06;4.80;99.90
18103;DHT22;9178;51.120;6.192;2023-04-03T07:28:35;5.00;99.90
18103;DHT22;9178;51.120;6.192;2023-04-03T07:31:04;5.00;99.90
18103;DHT22;9178;51.120;6.192;2023-04-03T07:33:32;5.10;99.90
18103;DHT22;9178;51.120;6.192;2023-04-03T07:35:59;5.30;99.90
18103;DHT22;9178;51.120;6.192;2023-04-03T07:38:28;5.40;99.90
18103;DHT22;9178;51.120;6.192;2023-04-03T07:40:55;5.50;99.90
18103;DHT22;9178;51.120;6.192;2023-04-03T07:43:22;5.60;99.90
18103;DHT22;9178;51.120;6.192;2023-04-03T07:45:51;6.00;99.90
18103;DHT22;9178;51.120;6.192;2023-04-03T07:48:20;6.10;99.90
18103;DHT22;9178;51.120;6.192;2023-04-03T07:50:47;6.50;99.90
18103;DHT22;9178;51.120;6.192;2023-04-03T07:53:15;6.80;99.90
18103;DHT22;9178;51.120;6.192;2023-04-03T07:55:45;7.00;99.90
18103;DHT22;9178;51.120;6.192;2023-04-03T07:58:16;7.00;99.90
18103;DHT22;9178;51.120;6.192;2023-04-03T08:00:43;7.20;99.90
18103;DHT22;9178;51.120;6.192;2023-04-03T08:03:12;7.40;99.90
18103;DHT22;9178;51.120;6.192;2023-04-03T08:05:40;7.70;99.90
18103;DHT22;9178;51.120;6.192;2023-04-03T08:08:08;7.80;99.90
18103;DHT22;9178;51.120;6.192;2023-04-03T08:10:35;8.00;99.90
18103;DHT22;9178;51.120;6.192;2023-04-03T08:13:03;8.20;99.90
18103;DHT22;9178;51.120;6.192;2023-04-03T08:15:30;8.30;99.90
18103;DHT22;9178;51.120;6.192;2023-04-03T08:17:57;8.00;99.90
18103;DHT22;9178;51.120;6.192;2023-04-03T08:20:26;8.20;99.90
18103;DHT22;9178;51.120;6.192;2023-04-03T08:22:53;8.20;99.90
18103;DHT22;9178;51.120;6.192;2023-04-03T08:25:20;8.10;99.90
18103;DHT22;9178;51.120;6.192;2023-04-03T08:27:47;7.90;99.90
18103;DHT22;9178;51.120;6.192;2023-04-03T08:30:14;7.90;99.90
18103;DHT22;9178;51.120;6.192;2023-04-03T08:32:41;7.70;99.90
18103;DHT22;9178;51.120;6.192;2023-04-03T08:35:09;7.80;99.90
18103;DHT22;9178;51.120;6.192;2023-04-03T08:37:39;7.80;99.90
18103;DHT22;9178;51.120;6.192;2023-04-03T08:40:14;8.10;99.90
18103;DHT22;9178;51.120;6.192;2023-04-03T08:42:48;8.20;99.90
18103;DHT22;9178;51.120;6.192;2023-04-03T08:45:22;8.30;99.90
18103;DHT22;9178;51.120;6.192;2023-04-03T08:47:57;8.40;99.90
18103;DHT22;9178;51.120;6.192;2023-04-03T08:50:30;8.40;99.90
18103;DHT22;9178;51.120;6.192;2023-04-03T08:53:01;8.40;99.90
18103;DHT22;9178;51.120;6.192;2023-04-03T08:55:33;8.40;99.90
18103;DHT22;9178;51.120;6.192;2023-04-03T08:58:02;8.60;99.90
18103;DHT22;9178;51.120;6.192;2023-04-03T09:00:34;8.80;99.90
18103;DHT22;9178;51.120;6.192;2023-04-03T09:03:04;8.80;99.90
18103;DHT22;9178;51.120;6.192;2023-04-03T09:05:38;8.70;99.90
18103;DHT22;9178;51.120;6.192;2023-04-03T09:08:14;8.60;99.90
18103;DHT22;9178;51.120;6.192;2023-04-03T09:10:45;8.40;99.90
18103;DHT22;9178;51.120;6.192;2023-04-03T09:13:18;8.30;99.90
18103;DHT22;9178;51.120;6.192;2023-04-03T09:15:49;8.40;99.90
18103;DHT22;9178;51.120;6.192;2023-04-03T09:18:20;8.40;99.90
18103;DHT22;9178;51.120;6.192;2023-04-03T09:20:56;8.60;99.90
18103;DHT22;9178;51.120;6.192;2023-04-03T09:23:30;8.50;99.90
18103;DHT22;9178;51.120;6.192;2023-04-03T09:26:04;8.60;99.90
18103;DHT22;9178;51.120;6.192;2023-04-03T09:28:36;8.50;99.90
18103;DHT22;9178;51.120;6.192;2023-04-03T09:31:14;8.50;99.90
18103;DHT22;9178;51.120;6.192;2023-04-03T09:33:43;8.60;99.90
18103;DHT22;9178;51.120;6.192;2023-04-03T09:36:10;8.80;99.90
18103;DHT22;9178;51.120;6.192;2023-04-03T09:38:39;9.00;99.90
18103;DHT22;9178;51.120;6.192;2023-04-03T09:41:09;8.90;99.90
18103;DHT22;9178;51.120;6.192;2023-04-03T09:43:51;9.00;99.90
18103;DHT22;9178;51.120;6.192;2023-04-03T09:46:25;8.90;99.90
18103;DHT22;9178;51.120;6.192;2023-04-03T09:48:56;9.00;99.90
18103;DHT22;9178;51.120;6.192;2023-04-03T09:51:25;9.00;99.90
18103;DHT22;9178;51.120;6.192;2023-04-03T09:53:55;9.10;99.90
18103;DHT22;9178;51.120;6.192;2023-04-03T09:56:25;9.20;99.90
18103;DHT22;9178;51.120;6.192;2023-04-03T09:59:07;9.30;99.90
18103;DHT22;9178;51.120;6.192;2023-04-03T10:01:36;9.50;99.90
18103;DHT22;9178;51.120;6.192;2023-04-03T10:04:09;9.60;99.90
18103;DHT22;9178;51.120;6.192;2023-04-03T10:06:41;9.50;98.20
18103;DHT22;9178;51.120;6.192;2023-04-03T10:09:24;9.10;99.30
18103;DHT22;9178;51.120;6.192;2023-04-03T10:12:00;9.30;99.60
18103;DHT22;9178;51.120;6.192;2023-04-03T10:14:28;9.30;99.90
18103;DHT22;9178;51.120;6.192;2023-04-03T10:17:02;9.50;99.90
18103;DHT22;9178;51.120;6.192;2023-04-03T10:19:35;9.60;99.20
18103;DHT22;9178;51.120;6.192;2023-04-03T10:22:16;9.50;98.60
18103;DHT22;9178;51.120;6.192;2023-04-03T10:24:52;9.30;98.20
18103;DHT22;9178;51.120;6.192;2023-04-03T10:27:29;9.10;99.00
18103;DHT22;9178;51.120;6.192;2023-04-03T10:30:04;9.30;99.90
18103;DHT22;9178;51.120;6.192;2023-04-03T10:32:45;9.50;97.80
18103;DHT22;9178;51.120;6.192;2023-04-03T10:35:20;9.90;99.90
18103;DHT22;9178;51.120;6.192;2023-04-03T10:37:59;10.10;98.10
18103;DHT22;9178;51.120;6.192;2023-04-03T10:40:33;10.40;97.70
18103;DHT22;9178;51.120;6.192;2023-04-03T10:43:06;10.40;96.10
18103;DHT22;9178;51.120;6.192;2023-04-03T10:45:49;10.60;97.70
18103;DHT22;9178;51.120;6.192;2023-04-03T10:48:33;10.50;94.10
18103;DHT22;9178;51.120;6.192;2023-04-03T10:51:14;10.50;96.40
18103;DHT22;9178;51.120;6.192;2023-04-03T10:53:47;10.10;95.00
18103;DHT22;9178;51.120;6.192;2023-04-03T10:56:22;9.80;96.20
18103;DHT22;9178;51.120;6.192;2023-04-03T10:58:56;10.00;94.80
18103;DHT22;9178;51.120;6.192;2023-04-03T11:01:29;10.40;97.20
18103;DHT22;9178;51.120;6.192;2023-04-03T11:03:58;10.80;99.10
18103;DHT22;9178;51.120;6.192;2023-04-03T11:06:31;10.90;99.70
18103;DHT22;9178;51.120;6.192;2023-04-03T11:09:07;11.80;99.10
18103;DHT22;9178;51.120;6.192;2023-04-03T11:11:43;12.50;98.80
18103;DHT22;9178;51.120;6.192;2023-04-03T11:14:13;12.50;95.50
18103;DHT22;9178;51.120;6.192;2023-04-03T11:16:45;11.80;94.90
18103;DHT22;9178;51.120;6.192;2023-04-03T11:19:18;12.10;96.70
18103;DHT22;9178;51.120;6.192;2023-04-03T11:21:52;12.70;97.40
18103;DHT22;9178;51.120;6.192;2023-04-03T11:24:26;13.10;96.90
18103;DHT22;9178;51.120;6.192;2023-04-03T11:26:58;13.20;93.30
18103;DHT22;9178;51.120;6.192;2023-04-03T11:29:31;12.90;92.40
18103;DHT22;9178;51.120;6.192;2023-04-03T11:32:08;13.00;94.80
18103;DHT22;9178;51.120;6.192;2023-04-03T11:34:38;13.40;92.10
18103;DHT22;9178;51.120;6.192;2023-04-03T11:37:14;13.60;96.50
18103;DHT22;9178;51.120;6.192;2023-04-03T11:39:48;13.90;93.80
18103;DHT22;9178;51.120;6.192;2023-04-03T11:42:26;14.00;94.60
18103;DHT22;9178;51.120;6.192;2023-04-03T11:45:16;13.30;91.80
18103;DHT22;9178;51.120;6.192;2023-04-03T11:47:44;13.20;95.90
18103;DHT22;9178;51.120;6.192;2023-04-03T11:50:31;13.50;92.50
18103;DHT22;9178;51.120;6.192;2023-04-03T11:53:00;13.10;94.10
18103;DHT22;9178;51.120;6.192;2023-04-03T11:58:35;14.10;93.20
18103;DHT22;9178;51.120;6.192;2023-04-03T12:01:07;13.70;90.90
18103;DHT22;9178;51.120;6.192;2023-04-03T12:04:07;14.00;93.70
18103;DHT22;9178;51.120;6.192;2023-04-03T12:09:59;15.00;91.90
18103;DHT22;9178;51.120;6.192;2023-04-03T12:12:33;15.00;88.70
18103;DHT22;9178;51.120;6.192;2023-04-03T12:15:26;15.00;90.00
18103;DHT22;9178;51.120;6.192;2023-04-03T12:18:42;15.00;88.60
18103;DHT22;9178;51.120;6.192;2023-04-03T12:21:09;14.40;90.80
18103;DHT22;9178;51.120;6.192;2023-04-03T12:23:57;13.80;85.50
18103;DHT22;9178;51.120;6.192;2023-04-03T12:26:35;13.10;88.60
18103;DHT22;9178;51.120;6.192;2023-04-03T12:29:13;12.70;90.30
18103;DHT22;9178;51.120;6.192;2023-04-03T12:31:55;12.70;91.90
18103;DHT22;9178;51.120;6.192;2023-04-03T12:34:46;12.80;90.20
18103;DHT22;9178;51.120;6.192;2023-04-03T12:37:37;12.20;91.00
18103;DHT22;9178;51.120;6.192;2023-04-03T12:40:10;12.20;91.50
18103;DHT22;9178;51.120;6.192;2023-04-03T12:46:11;13.00;91.10
18103;DHT22;9178;51.120;6.192;2023-04-03T12:48:49;13.30;91.00
18103;DHT22;9178;51.120;6.192;2023-04-03T12:51:19;13.40;90.40
18103;DHT22;9178;51.120;6.192;2023-04-03T12:53:47;13.60;91.10
18103;DHT22;9178;51.120;6.192;2023-04-03T12:56:23;13.60;91.50
18103;DHT22;9178;51.120;6.192;2023-04-03T12:58:52;13.50;91.00
18103;DHT22;9178;51.120;6.192;2023-04-03T13:01:21;13.60;91.90
18103;DHT22;9178;51.120;6.192;2023-04-03T13:03:53;13.70;89.10
18103;DHT22;9178;51.120;6.192;2023-04-03T13:06:22;13.40;91.40
18103;DHT22;9178;51.120;6.192;2023-04-03T13:08:51;13.20;91.70
18103;DHT22;9178;51.120;6.192;2023-04-03T13:11:20;13.20;88.30
18103;DHT22;9178;51.120;6.192;2023-04-03T13:13:56;13.20;90.10
18103;DHT22;9178;51.120;6.192;2023-04-03T13:16:22;13.20;90.50
18103;DHT22;9178;51.120;6.192;2023-04-03T13:18:52;13.20;87.00
18103;DHT22;9178;51.120;6.192;2023-04-03T13:21:22;12.90;87.70
18103;DHT22;9178;51.120;6.192;2023-04-03T13:23:52;13.00;87.70
18103;DHT22;9178;51.120;6.192;2023-04-03T13:26:22;13.70;86.70
18103;DHT22;9178;51.120;6.192;2023-04-03T13:28:51;13.90;84.90
18103;DHT22;9178;51.120;6.192;2023-04-03T13:31:23;14.10;86.70
18103;DHT22;9178;51.120;6.192;2023-04-03T13:34:01;14.30;83.90
18103;DHT22;9178;51.120;6.192;2023-04-03T13:36:31;14.10;81.00
18103;DHT22;9178;51.120;6.192;2023-04-03T13:39:03;14.00;79.60
18103;DHT22;9178;51.120;6.192;2023-04-03T13:41:39;14.20;80.90
18103;DHT22;9178;51.120;6.192;2023-04-03T13:44:27;14.70;85.40
18103;DHT22;9178;51.120;6.192;2023-04-03T13:46:55;14.70;78.10
18103;DHT22;9178;51.120;6.192;2023-04-03T13:49:31;14.90;87.00
18103;DHT22;9178;51.120;6.192;2023-04-03T13:51:58;15.50;81.10
18103;DHT22;9178;51.120;6.192;2023-04-03T13:54:39;15.90;76.80
18103;DHT22;9178;51.120;6.192;2023-04-03T13:57:13;16.00;83.50
18103;DHT22;9178;51.120;6.192;2023-04-03T13:59:41;16.50;80.30
18103;DHT22;9178;51.120;6.192;2023-04-03T14:02:18;17.00;80.00
18103;DHT22;9178;51.120;6.192;2023-04-03T14:04:51;17.10;81.90
18103;DHT22;9178;51.120;6.192;2023-04-03T14:07:22;17.10;73.80
18103;DHT22;9178;51.120;6.192;2023-04-03T14:09:49;17.30;75.50
18103;DHT22;9178;51.120;6.192;2023-04-03T14:12:18;17.60;76.80
18103;DHT22;9178;51.120;6.192;2023-04-03T14:14:48;17.30;72.70
18103;DHT22;9178;51.120;6.192;2023-04-03T14:17:17;16.40;73.10
18103;DHT22;9178;51.120;6.192;2023-04-03T14:19:45;16.40;75.70
18103;DHT22;9178;51.120;6.192;2023-04-03T14:22:17;16.40;74.40
18103;DHT22;9178;51.120;6.192;2023-04-03T14:24:45;16.20;76.30
18103;DHT22;9178;51.120;6.192;2023-04-03T14:27:17;15.90;72.20
18103;DHT22;9178;51.120;6.192;2023-04-03T14:29:45;15.60;67.80
18103;DHT22;9178;51.120;6.192;2023-04-03T14:32:13;14.70;70.40
18103;DHT22;9178;51.120;6.192;2023-04-03T14:34:40;14.50;72.20
18103;DHT22;9178;51.120;6.192;2023-04-03T14:37:10;14.30;74.40
18103;DHT22;9178;51.120;6.192;2023-04-03T14:39:39;14.40;72.90
18103;DHT22;9178;51.120;6.192;2023-04-03T14:42:09;14.50;77.00
18103;DHT22;9178;51.120;6.192;2023-04-03T14:44:40;14.50;73.60
18103;DHT22;9178;51.120;6.192;2023-04-03T14:47:10;14.20;71.90
18103;DHT22;9178;51.120;6.192;2023-04-03T14:49:37;14.20;76.90
18103;DHT22;9178;51.120;6.192;2023-04-03T14:52:04;14.40;73.40
18103;DHT22;9178;51.120;6.192;2023-04-03T14:54:35;14.30;74.30
18103;DHT22;9178;51.120;6.192;2023-04-03T14:57:09;14.20;74.90
18103;DHT22;9178;51.120;6.192;2023-04-03T14:59:37;14.20;74.10
18103;DHT22;9178;51.120;6.192;2023-04-03T15:02:22;14.20;76.10
18103;DHT22;9178;51.120;6.192;2023-04-03T15:04:50;14.20;75.40
18103;DHT22;9178;51.120;6.192;2023-04-03T15:07:17;13.80;78.30
18103;DHT22;9178;51.120;6.192;2023-04-03T15:09:44;13.80;77.30
18103;DHT22;9178;51.120;6.192;2023-04-03T15:12:13;13.80;78.30
18103;DHT22;9178;51.120;6.192;2023-04-03T15:14:39;13.40;77.60
18103;DHT22;9178;51.120;6.192;2023-04-03T15:17:10;13.40;76.00
18103;DHT22;9178;51.120;6.192;2023-04-03T15:19:40;13.60;75.00
18103;DHT22;9178;51.120;6.192;2023-04-03T15:22:09;13.60;77.30
18103;DHT22;9178;51.120;6.192;2023-04-03T15:24:42;13.50;76.90
18103;DHT22;9178;51.120;6.192;2023-04-03T15:27:10;13.30;76.00
18103;DHT22;9178;51.120;6.192;2023-04-03T15:29:39;13.40;76.70
18103;DHT22;9178;51.120;6.192;2023-04-03T15:32:08;13.30;80.30
18103;DHT22;9178;51.120;6.192;2023-04-03T15:34:35;13.40;76.80
18103;DHT22;9178;51.120;6.192;2023-04-03T15:37:02;13.30;77.30
18103;DHT22;9178;51.120;6.192;2023-04-03T15:39:29;13.10;79.40
18103;DHT22;9178;51.120;6.192;2023-04-03T15:41:56;13.00;78.80
18103;DHT22;9178;51.120;6.192;2023-04-03T15:44:25;12.80;79.50
18103;DHT22;9178;51.120;6.192;2023-04-03T15:46:53;12.40;77.90
18103;DHT22;9178;51.120;6.192;2023-04-03T15:49:21;12.40;79.40
18103;DHT22;9178;51.120;6.192;2023-04-03T15:51:49;12.20;79.10
18103;DHT22;9178;51.120;6.192;2023-04-03T15:54:16;11.90;78.40
18103;DHT22;9178;51.120;6.192;2023-04-03T15:56:43;11.70;78.30
18103;DHT22;9178;51.120;6.192;2023-04-03T15:59:10;11.60;79.60
18103;DHT22;9178;51.120;6.192;2023-04-03T16:01:37;11.40;80.10
18103;DHT22;9178;51.120;6.192;2023-04-03T16:04:07;11.50;79.50
18103;DHT22;9178;51.120;6.192;2023-04-03T16:06:35;11.60;80.20
18103;DHT22;9178;51.120;6.192;2023-04-03T16:09:02;11.50;81.10
18103;DHT22;9178;51.120;6.192;2023-04-03T16:11:29;11.40;80.20
18103;DHT22;9178;51.120;6.192;2023-04-03T16:13:56;11.40;81.20
18103;DHT22;9178;51.120;6.192;2023-04-03T16:16:23;11.30;80.60
18103;DHT22;9178;51.120;6.192;2023-04-03T16:18:51;11.20;80.90
18103;DHT22;9178;51.120;6.192;2023-04-03T16:21:21;11.10;81.70
18103;DHT22;9178;51.120;6.192;2023-04-03T16:23:49;11.00;81.80
18103;DHT22;9178;51.120;6.192;2023-04-03T16:26:15;10.80;81.80
18103;DHT22;9178;51.120;6.192;2023-04-03T16:28:43;10.70;82.80
18103;DHT22;9178;51.120;6.192;2023-04-03T16:31:10;10.70;82.80